createdAt,value
2022-08-18T03:59:25.615Z,99934.84
2022-08-18T04:02:28.783Z,99934.84
2022-08-18T04:05:32.261Z,99933.75
2022-08-18T04:08:34.721Z,99939.44
2022-08-18T04:11:38.540Z,99940.28
2022-08-18T04:14:43.249Z,99935.91
2022-08-18T04:18:03.248Z,99944.31
2022-08-18T04:21:11.049Z,99946.63
2022-08-18T04:24:14.480Z,99944.12
2022-08-18T04:27:17.310Z,99945.63
2022-08-18T04:30:20.053Z,99944.09
2022-08-18T04:33:22.441Z,99938.66
2022-08-18T04:36:26.551Z,99943.81
2022-08-18T04:39:30.141Z,99943.31
2022-08-18T04:42:33.031Z,99943.09
2022-08-18T04:45:36.323Z,99946.88
2022-08-18T04:48:40.947Z,99944.75
2022-08-18T04:52:36.413Z,99944.88
2022-08-18T04:55:29.250Z,99945.34
2022-08-18T04:58:31.904Z,99953.00
2022-08-18T05:01:46.009Z,99948.37
2022-08-18T05:04:49.202Z,99951.06
2022-08-18T05:07:52.191Z,99952.84
2022-08-18T05:11:03.194Z,99937.19
2022-08-18T05:14:08.701Z,99945.34
2022-08-18T05:17:12.473Z,99951.81
2022-08-18T05:20:15.317Z,99940.03
2022-08-18T05:23:21.187Z,99940.78
2022-08-18T05:26:26.307Z,99942.88
2022-08-18T05:29:41.815Z,99945.66
2022-08-18T05:32:50.490Z,99940.84
2022-08-18T05:36:04.898Z,99944.25
2022-08-18T05:40:01.396Z,99954.56
2022-08-18T05:43:05.047Z,99947.56
2022-08-18T05:46:11.043Z,99947.75
2022-08-18T05:49:15.553Z,99947.28
2022-08-18T05:52:31.945Z,99949.13
2022-08-18T05:55:57.716Z,99957.00
2022-08-18T05:59:01.297Z,99958.09
2022-08-18T06:02:29.116Z,99951.25
2022-08-18T06:05:35.662Z,99960.34
2022-08-18T06:08:50.260Z,99961.47
2022-08-18T06:12:05.957Z,99964.25
2022-08-18T06:15:16.286Z,99972.25
2022-08-18T06:18:59.543Z,99971.84
2022-08-18T06:22:14.789Z,99982.25
2022-08-18T06:25:21.546Z,99973.19
2022-08-18T06:28:24.110Z,99977.41
2022-08-18T06:31:35.882Z,99973.72
2022-08-18T06:35:11.095Z,99974.34
2022-08-18T06:38:38.827Z,99972.75
2022-08-18T06:41:48.961Z,99973.44
2022-08-18T06:44:58.373Z,99980.06
2022-08-18T06:48:20.424Z,99977.31
2022-08-18T06:51:27.910Z,99970.37
2022-08-18T06:54:30.813Z,99964.97
2022-08-18T06:57:52.393Z,99968.75
2022-08-18T07:00:59.587Z,99966.72
2022-08-18T07:04:02.501Z,99952.72
2022-08-18T07:07:40.103Z,99954.00
2022-08-18T07:10:51.889Z,99954.66
2022-08-18T07:14:14.866Z,99959.25
2022-08-18T07:17:43.315Z,99950.75
2022-08-18T07:20:54.063Z,99944.53
2022-08-18T07:24:24.164Z,99947.66
2022-08-18T07:27:46.843Z,99942.25
2022-08-18T07:31:13.668Z,99948.22
2022-08-18T07:34:18.983Z,99953.47
2022-08-18T07:37:29.325Z,99950.53
2022-08-18T07:40:45.765Z,99941.59
2022-08-18T07:44:03.359Z,99943.59
2022-08-18T07:47:18.174Z,99944.62
2022-08-18T07:50:55.447Z,99940.06
2022-08-18T07:54:02.989Z,99946.34
2022-08-18T07:57:19.184Z,99946.47
2022-08-18T08:00:55.281Z,99951.53
2022-08-18T08:04:06.139Z,99947.63
2022-08-18T08:07:24.565Z,99962.75
2022-08-18T08:10:31.417Z,99971.47
2022-08-18T08:13:55.779Z,99972.44
2022-08-18T08:17:22.837Z,99978.56
2022-08-18T08:20:45.359Z,99988.44
2022-08-18T08:23:55.037Z,99986.06
2022-08-18T08:27:14.213Z,99993.03
2022-08-18T08:30:21.047Z,99986.37
2022-08-18T08:33:27.618Z,99985.87
2022-08-18T08:36:41.339Z,99981.66
2022-08-18T08:39:57.799Z,99978.87
2022-08-18T08:43:11.827Z,99980.88
2022-08-18T08:46:24.707Z,99978.91
2022-08-18T08:49:45.738Z,99974.41
2022-08-18T08:53:23.348Z,99962.53
2022-08-18T08:56:30.907Z,99963.16
2022-08-18T08:59:33.602Z,99963.66
2022-08-18T09:03:02.084Z,99964.31
2022-08-18T09:06:12.399Z,99960.00
2022-08-18T09:09:27.303Z,99964.09
2022-08-18T09:13:02.051Z,99952.53
2022-08-18T09:16:24.086Z,99952.84
2022-08-18T09:20:08.211Z,99942.09
2022-08-18T09:23:19.754Z,99940.44
2022-08-18T09:26:39.079Z,99943.84
2022-08-18T09:29:57.606Z,99938.25
2022-08-18T09:33:20.222Z,99928.47
2022-08-18T09:36:32.196Z,99939.41
2022-08-18T09:39:56.517Z,99928.16
2022-08-18T09:43:20.173Z,99935.22
2022-08-18T09:46:41.091Z,99928.84
2022-08-18T09:49:55.360Z,99928.03
2022-08-18T09:53:14.252Z,99912.56
2022-08-18T09:56:54.460Z,99905.09
2022-08-18T10:00:19.913Z,99898.75
2022-08-18T10:03:43.507Z,99885.50
2022-08-18T10:06:48.973Z,99880.94
2022-08-18T10:10:59.320Z,99878.84
2022-08-18T10:14:25.844Z,99876.59
2022-08-18T10:17:58.046Z,99866.34
2022-08-18T10:21:09.649Z,99877.03
2022-08-18T10:24:35.329Z,99862.38
2022-08-18T10:27:44.442Z,99866.00
2022-08-18T10:31:06.596Z,99867.34
2022-08-18T10:34:18.985Z,99865.94
2022-08-18T10:37:42.191Z,99874.28
2022-08-18T10:40:58.229Z,99868.84
2022-08-18T10:44:15.367Z,99858.00
2022-08-18T10:47:33.582Z,99861.56
2022-08-18T10:51:21.573Z,99865.72
2022-08-18T10:54:51.560Z,99851.75
2022-08-18T10:58:12.558Z,99858.38
2022-08-18T11:01:36.846Z,99846.50
2022-08-18T11:04:59.006Z,99847.31
2022-08-18T11:08:15.946Z,99849.47
2022-08-18T11:11:40.736Z,99847.50
2022-08-18T11:15:22.469Z,99843.31
2022-08-18T11:18:30.209Z,99839.22
2022-08-18T11:21:51.835Z,99844.56
2022-08-18T11:24:54.867Z,99833.50
2022-08-18T11:27:59.153Z,99827.59
2022-08-18T11:31:01.877Z,99822.12
2022-08-18T11:34:19.757Z,99818.81
2022-08-18T11:37:48.735Z,99808.09
2022-08-18T11:44:32.387Z,99797.97
2022-08-18T11:47:37.705Z,99792.78
2022-08-18T11:50:55.922Z,99779.81
2022-08-18T11:54:23.673Z,99782.13
2022-08-18T11:57:51.212Z,99776.28
2022-08-18T12:00:57.430Z,99770.94
2022-08-18T12:04:26.886Z,99777.66
2022-08-18T12:07:35.335Z,99769.41
2022-08-18T12:10:38.206Z,99769.66
2022-08-18T12:13:44.404Z,99766.19
2022-08-18T12:20:14.833Z,99746.84
2022-08-18T12:23:19.171Z,99758.47
2022-08-18T12:26:38.596Z,99745.97
2022-08-18T12:29:46.437Z,99739.84
2022-08-18T12:32:55.891Z,99733.78
2022-08-18T12:36:09.716Z,99725.78
2022-08-18T12:39:16.101Z,99723.03
2022-08-18T12:42:20.024Z,99716.72
2022-08-18T12:45:23.130Z,99727.09
2022-08-18T12:48:30.196Z,99726.44
2022-08-18T12:51:32.597Z,99731.19
2022-08-18T12:54:35.963Z,99739.12
2022-08-18T13:01:01.433Z,99746.84
2022-08-18T13:07:31.248Z,99757.19
2022-08-18T13:10:45.747Z,99751.53
2022-08-18T13:13:53.079Z,99756.31
2022-08-18T13:16:59.017Z,99751.22
2022-08-18T13:20:08.456Z,99747.66
2022-08-18T13:23:11.151Z,99752.53
2022-08-18T13:26:31.240Z,99748.69
2022-08-18T13:29:33.766Z,99755.91
2022-08-18T13:32:47.144Z,99765.25
2022-08-18T13:35:59.188Z,99760.22
2022-08-18T13:39:01.794Z,99758.13
2022-08-18T13:42:21.595Z,99734.69
2022-08-18T13:45:28.331Z,99739.56
2022-08-18T13:48:31.920Z,99746.31
2022-08-18T13:51:34.943Z,99746.62
2022-08-18T13:54:37.430Z,99746.09
2022-08-18T13:57:49.685Z,99740.59
2022-08-18T14:01:16.080Z,99744.00
2022-08-18T14:04:22.375Z,99742.13
2022-08-18T14:07:27.565Z,99745.53
2022-08-18T14:10:32.511Z,99740.50
2022-08-18T14:13:43.459Z,99748.75
2022-08-18T14:16:47.450Z,99754.09
2022-08-18T14:20:15.145Z,99755.44
2022-08-18T14:23:53.070Z,99748.53
2022-08-18T14:26:55.780Z,99752.38
2022-08-18T14:29:59.894Z,99747.50
2022-08-18T14:33:07.151Z,99760.38
2022-08-18T14:36:14.949Z,99767.63
2022-08-18T14:39:18.165Z,99759.44
2022-08-18T14:42:41.072Z,99758.72
2022-08-18T14:45:48.682Z,99755.84
2022-08-18T14:48:51.806Z,99758.75
2022-08-18T14:51:54.456Z,99759.75
2022-08-18T14:54:57.077Z,99758.41
2022-08-18T14:57:59.775Z,99752.13
2022-08-18T15:01:08.375Z,99746.84
2022-08-18T15:04:18.648Z,99741.37
2022-08-18T15:07:23.810Z,99746.91
2022-08-18T15:10:27.998Z,99733.97
2022-08-18T15:13:32.156Z,99737.03
2022-08-18T15:16:34.958Z,99729.38
2022-08-18T15:19:59.994Z,99724.88
2022-08-18T15:23:28.077Z,99733.94
2022-08-18T15:26:32.381Z,99735.16
2022-08-18T15:29:37.171Z,99738.69
2022-08-18T15:32:46.592Z,99744.34
2022-08-18T15:35:53.313Z,99736.94
2022-08-18T15:38:56.720Z,99737.75
2022-08-18T15:41:59.857Z,99747.16
2022-08-18T15:45:12.097Z,99746.25
